Memphis, TN (38115)

8:59 AM CST on December 04, 2016 (GMT -0600)
1 SE Shelby County | | Change Station

Elev 372 ft 35.02 °N, 89.82 °W | Updated 13 minutes ago

Overcast
Overcast
46.4 °F
Feels Like 46 °F
N
0.0
Wind Variable Wind from SE
Gusts 3.0 mph

Today
High -- | Low -- °F
--% Chance of Precip.
Yesterday
High -- | Low -- °F
Precip. -- in
Pressure 29.97 in
Visibility 7.0 miles
Clouds Overcast 800 ft
Windchill 46 °F
Dew Point 45 °F
Humidity 96%
Rainfall 0.19 in
Snow Depth Not available.
6:52 AM 4:47 PM
Waxing Crescent, 23% visible
METAR KMEM 041454Z 12007KT 7SM OVC008 08/07 A2997 RMK AO2 SLP148 60001 T00830072 58003 $
Pressure 29.97 in
Visibility 7.0 miles
Clouds Overcast 800 ft
Windchill 46 °F
Dew Point 45 °F
Humidity 96%
Rainfall 0.19 in
Snow Depth Not available.
6:52 AM 4:47 PM
Waxing Crescent, 23% visible
METAR KMEM 041454Z 12007KT 7SM OVC008 08/07 A2997 RMK AO2 SLP148 60001 T00830072 58003 $

10-Day Weather Forecast

Almanac

Astronomy

Dec. 04, 2016 Rise Set
Actual Time
Civil Twilight
Nautical Twilight
Astronomical Twilight
Moon
Length of Visible Light
Length of Day
Tomorrow will be .
, % of the Moon is Illuminated

Today's Extremes

State Highs State Lows

Community

WunderPhotos

Upload Photos

1,955,602 photos uploaded!

WunderBlog® & News

Nearby

Air Quality

  Air Quality AQ Index Pollutant
Not available.

Snow Depth

Station Depth Elevation

Earthquake Activity

City Distance Mag. Time & Date
Minimum magnitude displayed is 2.5.

Coastal Water Temperatures

Place Temperature

Stations

Nearby Weather Stations

Station Location Temp. Windchill Dew Point Humidity Wind Precip. Elev Updated Type
                   

Watches & Warnings

There are currently no watches in effect.